createdAt,value
2022-11-04T00:02:11.215Z,101109.44
2022-11-04T00:04:39.382Z,101111.22
2022-11-04T00:07:28.943Z,101110.34
2022-11-04T00:09:57.586Z,101109.44
2022-11-04T00:12:27.663Z,101105.00
2022-11-04T00:15:15.880Z,101081.75
2022-11-04T00:17:43.125Z,101100.47
2022-11-04T00:20:29.548Z,101096.06
2022-11-04T00:23:16.852Z,101102.06
2022-11-04T00:26:01.909Z,101108.13
2022-11-04T00:28:45.364Z,101096.72
2022-11-04T00:31:30.677Z,101094.13
2022-11-04T00:34:00.060Z,101101.06
2022-11-04T00:36:28.572Z,101084.00
2022-11-04T00:38:58.580Z,101105.28
2022-11-04T00:41:30.473Z,101097.38
2022-11-04T00:44:00.308Z,101053.69
2022-11-04T00:46:29.231Z,101090.91
2022-11-04T00:48:57.775Z,101096.06
2022-11-04T00:51:26.590Z,101091.72
2022-11-04T00:53:55.469Z,101045.22
2022-11-04T00:56:25.296Z,101094.09
2022-11-04T00:58:53.546Z,101098.31
2022-11-04T01:01:22.015Z,101101.75
2022-11-04T01:03:52.716Z,101099.31
2022-11-04T01:06:23.967Z,101084.34
2022-11-04T01:08:56.910Z,101096.94
2022-11-04T01:11:28.545Z,101098.72
2022-11-04T01:13:57.249Z,101089.09
2022-11-04T01:19:00.370Z,101028.34
2022-11-04T01:21:28.495Z,101089.88
2022-11-04T01:23:56.736Z,101084.59
2022-11-04T01:26:27.940Z,101087.31
2022-11-04T01:28:57.600Z,101061.41
2022-11-04T01:31:29.403Z,101090.84
2022-11-04T01:33:58.176Z,101095.16
2022-11-04T01:36:27.672Z,101088.41
2022-11-04T01:38:57.567Z,101087.69
2022-11-04T01:41:29.252Z,101080.81
2022-11-04T01:43:59.762Z,101083.34
2022-11-04T01:46:33.795Z,101073.72
2022-11-04T01:49:05.839Z,101085.13
2022-11-04T01:51:37.549Z,101082.47
2022-11-04T01:54:07.801Z,101079.13
2022-11-04T01:56:38.507Z,101086.16
2022-11-04T01:59:10.669Z,101088.00
2022-11-04T02:01:41.725Z,101089.13
2022-11-04T02:04:25.535Z,101023.41
2022-11-04T02:06:56.648Z,101083.47
2022-11-04T02:09:31.335Z,101080.25
2022-11-04T02:12:18.713Z,101084.78
2022-11-04T02:14:51.060Z,101079.59
2022-11-04T02:17:34.280Z,101084.00
2022-11-04T02:20:26.233Z,101067.78
2022-11-04T02:23:16.291Z,101082.03
2022-11-04T02:26:18.348Z,101086.25
2022-11-04T02:29:13.589Z,101079.97
2022-11-04T02:31:47.799Z,101075.41
2022-11-04T02:34:24.042Z,100990.50
2022-11-04T02:37:00.006Z,101020.69
2022-11-04T02:39:38.384Z,101065.75
2022-11-04T02:42:14.349Z,101081.44
2022-11-04T02:44:51.493Z,101079.53
2022-11-04T02:47:25.567Z,101053.44
2022-11-04T02:49:59.867Z,101078.47
2022-11-04T02:52:32.500Z,101027.69
2022-11-04T02:55:04.310Z,101078.16
2022-11-04T02:57:37.008Z,101065.50
2022-11-04T03:00:09.229Z,101079.34
2022-11-04T03:02:41.968Z,101060.97
2022-11-04T03:05:14.738Z,101082.13
2022-11-04T03:07:45.304Z,101065.03
2022-11-04T03:10:18.172Z,101058.03
2022-11-04T03:12:51.612Z,101075.75
2022-11-04T03:15:26.010Z,101041.84
2022-11-04T03:18:11.087Z,101048.34
2022-11-04T03:20:42.256Z,101040.38
2022-11-04T03:23:14.282Z,101071.81
2022-11-04T03:25:46.892Z,101023.16
2022-11-04T03:28:26.259Z,101065.28
2022-11-04T03:31:00.998Z,101055.00
2022-11-04T03:33:41.191Z,101062.16
2022-11-04T03:36:10.189Z,101065.66
2022-11-04T03:38:39.433Z,101071.66
2022-11-04T03:41:13.815Z,101059.03
2022-11-04T03:43:43.080Z,101073.31
2022-11-04T03:46:13.262Z,101058.97
2022-11-04T03:48:41.951Z,101065.41
2022-11-04T03:51:10.777Z,101064.56
2022-11-04T03:53:39.271Z,101065.47
2022-11-04T03:56:29.531Z,101062.09
2022-11-04T03:59:13.466Z,101071.72
2022-11-04T04:01:51.552Z,101055.00
2022-11-04T04:04:28.289Z,101063.56
2022-11-04T04:07:02.833Z,101058.97
2022-11-04T04:09:40.492Z,101066.63
2022-11-04T04:12:15.270Z,101069.13
2022-11-04T04:14:47.882Z,101075.19
2022-11-04T04:17:22.827Z,101075.88
2022-11-04T04:19:55.557Z,101066.25
2022-11-04T04:22:26.426Z,101052.66
2022-11-04T04:25:14.953Z,101067.72
2022-11-04T04:27:44.677Z,101066.69
2022-11-04T04:30:15.155Z,101070.13
2022-11-04T04:32:47.107Z,101071.09
2022-11-04T04:35:33.242Z,101066.69
2022-11-04T04:38:18.090Z,101022.06
2022-11-04T04:41:09.354Z,101071.78
2022-11-04T04:43:57.106Z,101069.75
2022-11-04T04:46:25.966Z,101066.19
2022-11-04T04:48:55.681Z,101075.09
2022-11-04T04:51:24.393Z,101077.00
2022-11-04T04:53:52.504Z,101077.25
2022-11-04T04:56:20.876Z,101056.13
2022-11-04T04:58:49.096Z,101077.66
2022-11-04T05:01:17.333Z,101079.66
2022-11-04T05:03:45.675Z,101058.28
2022-11-04T05:06:15.443Z,101076.31
2022-11-04T05:08:43.630Z,101072.94
2022-11-04T05:11:11.842Z,101067.84
2022-11-04T05:13:39.735Z,101055.34
2022-11-04T05:16:09.848Z,101070.63
2022-11-04T05:18:38.317Z,101068.91
2022-11-04T05:21:07.089Z,100945.84
2022-11-04T05:23:37.068Z,101011.97
2022-11-04T05:26:05.302Z,101031.00
2022-11-04T05:28:33.652Z,101072.00
2022-11-04T05:31:04.326Z,101054.13
2022-11-04T05:33:32.650Z,101066.78
2022-11-04T05:36:07.984Z,101068.38
2022-11-04T05:38:37.982Z,101074.38
2022-11-04T05:41:06.223Z,101068.13
2022-11-04T05:43:34.752Z,101026.19
2022-11-04T05:46:03.023Z,101082.63
2022-11-04T05:48:35.125Z,101058.44
2022-11-04T05:51:05.999Z,101075.94
2022-11-04T05:53:33.836Z,101073.94
2022-11-04T05:56:03.075Z,101073.69
2022-11-04T05:58:31.235Z,101072.63
2022-11-04T06:01:13.234Z,101064.53
2022-11-04T06:03:41.495Z,101066.06
2022-11-04T06:06:09.383Z,101023.81
2022-11-04T06:08:41.088Z,101035.28
2022-11-04T06:11:13.657Z,101013.72
2022-11-04T06:13:41.595Z,101068.97
2022-11-04T06:16:09.665Z,101072.28
2022-11-04T06:18:37.790Z,101074.09
2022-11-04T06:21:22.523Z,101067.06
2022-11-04T06:23:50.463Z,101072.16
2022-11-04T06:26:25.135Z,101065.69
2022-11-04T06:28:55.211Z,101047.03
2022-11-04T06:31:23.126Z,101073.81
2022-11-04T06:33:51.048Z,101048.81
2022-11-04T06:36:19.018Z,101068.72
2022-11-04T06:38:46.939Z,101063.63
2022-11-04T06:41:17.052Z,101065.41
2022-11-04T06:43:46.392Z,101059.03
2022-11-04T06:46:28.894Z,101065.41
2022-11-04T06:48:57.980Z,101052.03
2022-11-04T06:51:26.692Z,101048.59
2022-11-04T06:53:55.084Z,101047.59
2022-11-04T06:56:23.200Z,101072.69
2022-11-04T06:58:53.411Z,101035.34
2022-11-04T07:01:23.179Z,101073.91
2022-11-04T07:03:52.655Z,101065.03
2022-11-04T07:06:21.422Z,101050.84
2022-11-04T07:08:50.225Z,101069.81
2022-11-04T07:11:18.896Z,101077.00
2022-11-04T07:13:46.875Z,101084.22
2022-11-04T07:16:16.713Z,101022.06
2022-11-04T07:18:44.597Z,101083.91
2022-11-04T07:21:13.472Z,101089.44
2022-11-04T07:23:41.400Z,101084.22
2022-11-04T07:26:11.484Z,101079.94
2022-11-04T07:28:40.035Z,101088.53
2022-11-04T07:31:09.694Z,101081.03
2022-11-04T07:33:39.004Z,101081.50
2022-11-04T07:36:08.633Z,101080.38
2022-11-04T07:38:36.541Z,101064.84
2022-11-04T07:41:04.547Z,101084.06
2022-11-04T07:43:32.541Z,101062.47
2022-11-04T07:46:01.597Z,101050.66
2022-11-04T07:48:29.447Z,101081.75
2022-11-04T07:51:00.351Z,101087.19
2022-11-04T07:53:28.892Z,101086.38
2022-11-04T07:55:56.906Z,101049.19
2022-11-04T07:58:25.644Z,101064.50
2022-11-04T08:00:59.900Z,101084.53
2022-11-04T08:03:27.996Z,101090.91
2022-11-04T08:05:57.529Z,101092.75
2022-11-04T08:08:27.119Z,101088.38
2022-11-04T08:10:57.616Z,101081.22
2022-11-04T08:13:29.064Z,101069.41
2022-11-04T08:15:57.810Z,101066.19
2022-11-04T08:18:25.694Z,101069.09
2022-11-04T08:20:54.280Z,101068.44
2022-11-04T08:23:22.231Z,101074.72
2022-11-04T08:25:51.485Z,101057.75
2022-11-04T08:28:19.391Z,101072.75
2022-11-04T08:30:57.983Z,101043.41
2022-11-04T08:33:26.707Z,101069.94
2022-11-04T08:35:55.820Z,101041.97
2022-11-04T08:38:24.471Z,101042.69
2022-11-04T08:40:59.457Z,101064.28
2022-11-04T08:43:28.139Z,101034.56
2022-11-04T08:45:56.441Z,101057.00
2022-11-04T08:48:24.523Z,101064.72
2022-11-04T08:50:53.675Z,101038.41
2022-11-04T08:53:21.729Z,101052.97
2022-11-04T08:55:49.977Z,101051.72
2022-11-04T08:58:19.491Z,101036.09
2022-11-04T09:00:47.479Z,101041.91
2022-11-04T09:03:15.322Z,101048.81
2022-11-04T09:05:45.837Z,101050.41
2022-11-04T09:08:14.257Z,101039.53
2022-11-04T09:10:43.717Z,101011.28
2022-11-04T09:13:12.486Z,101037.94
2022-11-04T09:15:42.064Z,101053.72
2022-11-04T09:18:10.368Z,101027.81
2022-11-04T09:20:39.532Z,101045.97
2022-11-04T09:23:08.147Z,101005.94
2022-11-04T09:25:36.502Z,101022.50
2022-11-04T09:28:04.753Z,101046.47
2022-11-04T09:30:32.719Z,101048.50
2022-11-04T09:33:02.096Z,100988.91
2022-11-04T09:35:30.727Z,101050.91
2022-11-04T09:38:00.679Z,101052.66
2022-11-04T09:40:29.113Z,101033.66
2022-11-04T09:43:11.624Z,101053.06
2022-11-04T09:45:42.640Z,101067.00
2022-11-04T09:48:20.696Z,101057.34
2022-11-04T09:50:53.637Z,101059.88
2022-11-04T09:53:27.427Z,101067.69
2022-11-04T09:55:58.481Z,101058.88
2022-11-04T09:58:26.328Z,101069.53
2022-11-04T10:00:59.700Z,101051.84
2022-11-04T10:03:49.254Z,101058.72
2022-11-04T10:06:35.684Z,101055.44
2022-11-04T10:09:17.300Z,101044.72
2022-11-04T10:12:01.402Z,101058.63
2022-11-04T10:14:52.756Z,101056.63
2022-11-04T10:17:35.031Z,101067.75
2022-11-04T10:20:25.980Z,101059.69
2022-11-04T10:22:59.273Z,101082.47
2022-11-04T10:25:33.455Z,101037.78
2022-11-04T10:28:02.188Z,101075.03
2022-11-04T10:30:32.066Z,101073.22
2022-11-04T10:33:07.883Z,101068.94
2022-11-04T10:35:41.904Z,101071.16
2022-11-04T10:38:17.627Z,101076.28
2022-11-04T10:40:50.069Z,101074.81
2022-11-04T10:43:25.276Z,101079.03
2022-11-04T10:46:01.107Z,101070.06
2022-11-04T10:48:35.504Z,101083.94
2022-11-04T10:51:06.764Z,101054.13
2022-11-04T10:53:36.235Z,101056.44
2022-11-04T10:56:09.487Z,101079.97
2022-11-04T10:58:43.892Z,101075.34
2022-11-04T11:01:26.815Z,101070.91
2022-11-04T11:03:55.657Z,101076.06
2022-11-04T11:06:29.308Z,101068.94
2022-11-04T11:09:00.397Z,101067.16
2022-11-04T11:11:52.574Z,101094.13
2022-11-04T11:14:32.324Z,101069.44
2022-11-04T11:17:20.053Z,101067.00
2022-11-04T11:19:52.196Z,101085.50
2022-11-04T11:22:37.500Z,101064.66
2022-11-04T11:25:22.220Z,101047.09
2022-11-04T11:27:52.695Z,101025.66
2022-11-04T11:30:23.276Z,101060.66
2022-11-04T11:32:55.982Z,101057.97
2022-11-04T11:35:28.288Z,101073.09
2022-11-04T11:37:58.659Z,101067.84
2022-11-04T11:40:31.629Z,101060.13
2022-11-04T11:43:01.155Z,101042.41
2022-11-04T11:45:30.109Z,101028.13
2022-11-04T11:47:58.124Z,101051.38
2022-11-04T11:50:32.656Z,101047.94
2022-11-04T11:53:15.969Z,101039.41
2022-11-04T11:55:49.719Z,101037.44
2022-11-04T12:01:25.529Z,101044.16
2022-11-04T12:09:50.740Z,101026.59
2022-11-04T12:12:39.037Z,101047.78
2022-11-04T12:15:24.467Z,101034.28
2022-11-04T12:18:02.979Z,101046.00
2022-11-04T12:20:47.247Z,101047.78
2022-11-04T12:23:22.010Z,101052.94
2022-11-04T12:26:05.283Z,101045.69
2022-11-04T12:28:45.975Z,101049.03
2022-11-04T12:31:28.199Z,101022.53
2022-11-04T12:34:06.173Z,101044.34
2022-11-04T12:36:52.256Z,101040.88
2022-11-04T12:39:29.570Z,101016.06
2022-11-04T12:42:21.916Z,101041.69
2022-11-04T12:45:01.656Z,101027.41
2022-11-04T12:47:37.513Z,101032.75
2022-11-04T12:50:24.671Z,100981.16
2022-11-04T12:53:23.196Z,100980.22
2022-11-04T12:55:56.555Z,101042.41
2022-11-04T12:58:37.627Z,101034.47
2022-11-04T13:01:15.162Z,101030.13
2022-11-04T13:03:49.793Z,101042.34
2022-11-04T13:06:20.692Z,101035.28
2022-11-04T13:08:53.340Z,101005.78
2022-11-04T13:11:24.563Z,101025.50
2022-11-04T13:14:02.312Z,101027.28
2022-11-04T13:16:32.781Z,101009.44
2022-11-04T13:19:01.999Z,101029.63
2022-11-04T13:21:36.506Z,101034.91
2022-11-04T13:24:07.107Z,101030.41
2022-11-04T13:26:35.123Z,101031.25
2022-11-04T13:29:09.270Z,101018.84
2022-11-04T13:31:48.110Z,101031.16
2022-11-04T13:34:25.297Z,101031.91
2022-11-04T13:37:05.905Z,101013.88
2022-11-04T13:39:37.793Z,101036.03
2022-11-04T13:42:36.731Z,101029.75
2022-11-04T13:45:14.219Z,101034.06
2022-11-04T13:47:50.498Z,101034.88
2022-11-04T13:50:36.692Z,101035.63
2022-11-04T13:53:06.903Z,100977.59
2022-11-04T13:55:36.009Z,101029.22
2022-11-04T13:58:06.233Z,101025.56
2022-11-04T14:00:37.474Z,101025.47
2022-11-04T14:03:37.858Z,101032.25
2022-11-04T14:06:08.823Z,101023.06
2022-11-04T14:08:36.784Z,101035.31
2022-11-04T14:11:12.929Z,101024.22
2022-11-04T14:13:46.361Z,101044.59
2022-11-04T14:16:40.946Z,101045.28
2022-11-04T14:19:55.924Z,101045.97
2022-11-04T14:22:31.993Z,101004.97
2022-11-04T14:25:01.827Z,101040.38
2022-11-04T14:27:39.464Z,101047.19
2022-11-04T14:30:09.083Z,101040.94
2022-11-04T14:32:42.721Z,101040.84
2022-11-04T14:35:19.380Z,101029.09
2022-11-04T14:37:56.059Z,101041.34
2022-11-04T14:40:26.550Z,101043.81
2022-11-04T14:42:56.869Z,101038.47
2022-11-04T14:45:27.926Z,101041.88
2022-11-04T14:48:01.489Z,101045.28
2022-11-04T14:50:29.865Z,101042.53
2022-11-04T14:53:00.011Z,101032.56
2022-11-04T14:55:30.423Z,101043.31
2022-11-04T14:58:19.886Z,101043.31
2022-11-04T15:00:55.810Z,101021.63
2022-11-04T15:06:35.269Z,101041.38
2022-11-04T15:09:22.044Z,101036.03
2022-11-04T15:12:07.412Z,101041.16
2022-11-04T15:14:38.325Z,101014.31
2022-11-04T15:17:06.360Z,101040.94
2022-11-04T15:19:37.133Z,101028.28
2022-11-04T15:22:07.593Z,101017.66
2022-11-04T15:24:36.373Z,101038.91
2022-11-04T15:27:06.913Z,101042.44
2022-11-04T15:29:34.848Z,101033.69
2022-11-04T15:32:05.639Z,101045.00
2022-11-04T15:34:36.920Z,100984.41
2022-11-04T15:37:06.784Z,101047.50
2022-11-04T15:39:37.419Z,101048.28
2022-11-04T15:42:29.366Z,101035.78
2022-11-04T15:44:57.450Z,100999.94
2022-11-04T15:47:28.728Z,100959.06
2022-11-04T15:50:16.628Z,101029.50
2022-11-04T15:52:51.325Z,101040.78
2022-11-04T15:55:21.817Z,101047.88
2022-11-04T15:57:50.516Z,101035.16
2022-11-04T16:00:31.316Z,101054.75
2022-11-04T16:03:00.602Z,101059.00
2022-11-04T16:05:33.256Z,101048.41
2022-11-04T16:08:20.295Z,101043.91
2022-11-04T16:10:48.956Z,101050.03
2022-11-04T16:13:25.720Z,101036.72
2022-11-04T16:16:09.321Z,101027.69
2022-11-04T16:18:41.902Z,101039.38
2022-11-04T16:21:15.709Z,101023.28
2022-11-04T16:23:47.208Z,101049.84
2022-11-04T16:26:15.700Z,101035.88
2022-11-04T16:28:44.179Z,101048.94
2022-11-04T16:31:28.423Z,101033.22
2022-11-04T16:33:56.495Z,101041.00
2022-11-04T16:36:29.715Z,101014.13
2022-11-04T16:39:03.761Z,101043.50
2022-11-04T16:41:36.502Z,101012.91
2022-11-04T16:44:07.045Z,101053.88
2022-11-04T16:46:35.083Z,101045.22
2022-11-04T16:49:03.076Z,101043.50
2022-11-04T16:51:34.715Z,101049.56
2022-11-04T16:54:02.684Z,101039.09
2022-11-04T16:56:30.943Z,101053.88
2022-11-04T16:58:58.947Z,101061.59
2022-11-04T17:01:26.966Z,101028.63
2022-11-04T17:03:54.873Z,101050.97
2022-11-04T17:06:22.906Z,101048.31
2022-11-04T17:08:53.288Z,101052.63
2022-11-04T17:11:21.203Z,101040.09
2022-11-04T17:13:49.312Z,101026.72
2022-11-04T17:16:17.181Z,101057.75
2022-11-04T17:18:45.032Z,101057.63
2022-11-04T17:21:17.077Z,101057.63
2022-11-04T17:23:44.963Z,101058.44
2022-11-04T17:26:14.655Z,101064.50
2022-11-04T17:28:42.561Z,101052.94
2022-11-04T17:31:17.510Z,101048.34
2022-11-04T17:33:45.588Z,101057.25
2022-11-04T17:36:18.052Z,101062.47
2022-11-04T17:38:46.170Z,101062.47
2022-11-04T17:41:33.025Z,100878.38
2022-11-04T17:44:01.209Z,101060.69
2022-11-04T17:46:35.714Z,101023.69
2022-11-04T17:49:06.461Z,101046.81
2022-11-04T17:51:34.431Z,101044.19
2022-11-04T17:54:02.476Z,101045.03
2022-11-04T17:56:32.291Z,101021.84
2022-11-04T17:59:01.995Z,101048.47
2022-11-04T18:01:30.012Z,101013.97
2022-11-04T18:03:58.213Z,101039.69
2022-11-04T18:06:27.871Z,101047.63
2022-11-04T18:08:56.650Z,101025.66
2022-11-04T18:11:43.251Z,101008.44
2022-11-04T18:14:16.864Z,101034.56
2022-11-04T18:16:47.490Z,101018.34
2022-11-04T18:19:15.929Z,101034.63
2022-11-04T18:21:43.961Z,101039.03
2022-11-04T18:24:12.799Z,101037.38
2022-11-04T18:26:41.377Z,101017.13
2022-11-04T18:29:09.780Z,101033.97
2022-11-04T18:31:47.804Z,101021.56
2022-11-04T18:34:19.594Z,101028.81
2022-11-04T18:36:50.880Z,101006.53
2022-11-04T18:39:20.284Z,101025.44
2022-11-04T18:41:48.908Z,101025.44
2022-11-04T18:44:19.535Z,101021.03
2022-11-04T18:46:49.289Z,101009.50
2022-11-04T18:49:18.554Z,101019.50
2022-11-04T18:51:46.460Z,101020.38
2022-11-04T18:54:15.178Z,101015.22
2022-11-04T18:56:43.883Z,101015.22
2022-11-04T18:59:12.956Z,101019.59
2022-11-04T19:01:42.141Z,100946.72
2022-11-04T19:04:13.109Z,100992.41
2022-11-04T19:06:43.371Z,101002.38
2022-11-04T19:09:40.608Z,101008.56
2022-11-04T19:12:18.752Z,101012.94
2022-11-04T19:14:46.691Z,101007.84
2022-11-04T19:17:14.992Z,101014.84
2022-11-04T19:19:44.417Z,101014.00
2022-11-04T19:22:12.898Z,101020.19
2022-11-04T19:24:40.949Z,101012.28
2022-11-04T19:27:08.873Z,100997.38
2022-11-04T19:29:37.022Z,101011.56
2022-11-04T19:32:12.809Z,101010.78
2022-11-04T19:34:42.143Z,101008.19
2022-11-04T19:37:11.910Z,101003.84
2022-11-04T19:39:40.453Z,101005.50
2022-11-04T19:42:26.012Z,100996.53
2022-11-04T19:44:54.228Z,100997.59
2022-11-04T19:47:22.155Z,100994.81
2022-11-04T19:49:50.179Z,101007.13
2022-11-04T19:52:20.216Z,101015.84
2022-11-04T19:54:48.084Z,101016.84
2022-11-04T19:57:16.489Z,101018.69
2022-11-04T19:59:44.533Z,101017.03
2022-11-04T20:02:15.651Z,101017.97
2022-11-04T20:04:43.527Z,100989.72
2022-11-04T20:07:11.433Z,100961.94
2022-11-04T20:09:40.905Z,101015.47
2022-11-04T20:12:26.238Z,101020.72
2022-11-04T20:14:56.956Z,101020.72
2022-11-04T20:17:25.266Z,100978.00
2022-11-04T20:19:53.177Z,101022.53
2022-11-04T20:22:21.079Z,101039.97
2022-11-04T20:24:50.589Z,101038.34
2022-11-04T20:27:18.436Z,101047.16
2022-11-04T20:29:46.359Z,101034.97
2022-11-04T20:32:14.215Z,101033.25
2022-11-04T20:34:42.244Z,101037.41
2022-11-04T20:37:11.763Z,101043.69
2022-11-04T20:39:39.930Z,101047.03
2022-11-04T20:42:09.198Z,101034.06
2022-11-04T20:44:37.231Z,101037.41
2022-11-04T20:47:05.203Z,101014.69
2022-11-04T20:49:33.213Z,101040.38
2022-11-04T20:52:01.504Z,101037.69
2022-11-04T20:54:29.534Z,101018.03
2022-11-04T20:56:57.486Z,101046.31
2022-11-04T20:59:27.506Z,101040.13
2022-11-04T21:01:55.748Z,101012.41
2022-11-04T21:04:24.677Z,101021.53
2022-11-04T21:06:52.951Z,101045.47
2022-11-04T21:09:22.607Z,101040.38
2022-11-04T21:11:51.379Z,101038.63
2022-11-04T21:14:20.351Z,101036.06
2022-11-04T21:16:49.623Z,101030.91
2022-11-04T21:19:17.843Z,101030.97
2022-11-04T21:21:47.172Z,101004.97
2022-11-04T21:24:16.419Z,101030.00
2022-11-04T21:26:45.640Z,100991.06
2022-11-04T21:29:16.607Z,101020.38
2022-11-04T21:31:45.428Z,101016.47
2022-11-04T21:34:15.207Z,101038.69
2022-11-04T21:36:43.531Z,101027.34
2022-11-04T21:39:13.210Z,101027.41
2022-11-04T21:41:41.216Z,101027.47
2022-11-04T21:44:12.728Z,101016.00
2022-11-04T21:46:40.797Z,100991.22
2022-11-04T21:49:08.844Z,101028.56
2022-11-04T21:51:38.047Z,101027.84
2022-11-04T21:54:07.948Z,100983.38
2022-11-04T21:56:35.916Z,101035.91
2022-11-04T21:59:04.920Z,101027.22
2022-11-04T22:01:33.607Z,101024.63
2022-11-04T22:04:02.901Z,101007.03
2022-11-04T22:06:35.062Z,101010.81
2022-11-04T22:09:06.532Z,100969.78
2022-11-04T22:11:36.528Z,100984.19
2022-11-04T22:14:06.715Z,101012.06
2022-11-04T22:16:36.140Z,101006.84
2022-11-04T22:19:06.029Z,101000.88
2022-11-04T22:21:39.322Z,101000.81
2022-11-04T22:24:11.542Z,100996.47
2022-11-04T22:26:40.306Z,100987.75
2022-11-04T22:29:08.363Z,100988.53
2022-11-04T22:31:38.007Z,100989.41
2022-11-04T22:34:09.868Z,100992.03
2022-11-04T22:36:38.251Z,100976.28
2022-11-04T22:39:10.520Z,100979.63
2022-11-04T22:41:43.508Z,100985.69
2022-11-04T22:44:11.395Z,100974.16
2022-11-04T22:46:39.920Z,100906.59
2022-11-04T22:49:08.228Z,100982.44
2022-11-04T22:51:36.076Z,100979.84
2022-11-04T22:54:08.212Z,100913.34
2022-11-04T22:56:36.995Z,100975.81
2022-11-04T22:59:06.499Z,100981.09
2022-11-04T23:01:34.658Z,100949.16
2022-11-04T23:04:03.111Z,100979.53
2022-11-04T23:06:33.558Z,100987.44
2022-11-04T23:09:01.780Z,100973.50
2022-11-04T23:11:48.916Z,100978.84
2022-11-04T23:14:37.518Z,100979.78
2022-11-04T23:17:32.975Z,100971.09
2022-11-04T23:20:03.658Z,100983.28
2022-11-04T23:22:48.839Z,100985.97
2022-11-04T23:25:16.980Z,100977.25
2022-11-04T23:28:05.367Z,100977.25
2022-11-04T23:30:36.744Z,100971.13
2022-11-04T23:33:06.865Z,100979.72
2022-11-04T23:35:55.217Z,100939.88
2022-11-04T23:38:23.581Z,100982.25
2022-11-04T23:41:06.503Z,100972.50
2022-11-04T23:43:34.663Z,100971.50
2022-11-04T23:46:21.744Z,100954.38
2022-11-04T23:49:21.806Z,100967.91
2022-11-04T23:52:07.039Z,100961.72
2022-11-04T23:54:52.204Z,100958.06
2022-11-04T23:57:37.800Z,100959.84
